createdAt,value
2018-10-06T00:00:43.794Z,89.36
2018-10-06T00:03:12.139Z,89.97
2018-10-06T00:05:40.471Z,89.32
2018-10-06T00:08:08.815Z,89.45
2018-10-06T00:10:37.122Z,89.00
2018-10-06T00:13:05.531Z,89.63
2018-10-06T00:15:33.846Z,89.18
2018-10-06T00:18:02.182Z,89.55
2018-10-06T00:20:30.517Z,89.92
2018-10-06T00:22:58.999Z,90.30
2018-10-06T00:25:27.280Z,89.45
2018-10-06T00:27:55.572Z,90.19
2018-10-06T00:30:23.837Z,90.37
2018-10-06T00:32:52.113Z,90.48
2018-10-06T00:35:20.415Z,90.33
2018-10-06T00:37:48.807Z,89.73
2018-10-06T00:40:17.200Z,89.48
2018-10-06T00:42:45.564Z,90.11
2018-10-06T00:45:13.877Z,90.39
2018-10-06T00:47:42.164Z,90.00
2018-10-06T00:50:10.443Z,90.68
2018-10-06T00:52:38.739Z,89.81
2018-10-06T00:55:07.054Z,90.77
2018-10-06T00:57:35.346Z,90.16
2018-10-06T01:00:03.630Z,90.19
2018-10-06T01:02:31.930Z,89.60
2018-10-06T01:05:00.234Z,89.96
2018-10-06T01:07:28.519Z,89.85
2018-10-06T01:09:56.802Z,89.79
2018-10-06T01:12:25.105Z,89.82
2018-10-06T01:14:53.390Z,90.60
2018-10-06T01:17:21.671Z,90.55
2018-10-06T01:19:49.934Z,90.58
2018-10-06T01:22:18.238Z,91.03
2018-10-06T01:24:46.544Z,91.14
2018-10-06T01:27:14.845Z,90.17
2018-10-06T01:29:43.107Z,91.32
2018-10-06T01:32:11.406Z,91.77
2018-10-06T01:34:45.152Z,91.33
2018-10-06T01:37:13.462Z,90.69
2018-10-06T01:39:41.749Z,90.57
2018-10-06T01:42:10.003Z,90.16
2018-10-06T01:44:38.285Z,90.65
2018-10-06T01:47:06.707Z,90.63
2018-10-06T01:49:35.012Z,91.10
2018-10-06T01:52:03.353Z,90.35
2018-10-06T01:54:31.632Z,90.52
2018-10-06T01:56:59.930Z,90.31
2018-10-06T01:59:28.179Z,90.98
2018-10-06T02:01:56.463Z,90.03
2018-10-06T02:04:31.029Z,90.41
2018-10-06T02:06:59.335Z,90.55
2018-10-06T02:09:27.630Z,89.79
2018-10-06T02:11:55.917Z,90.57
2018-10-06T02:14:24.216Z,90.89
2018-10-06T02:16:52.525Z,90.85
2018-10-06T02:19:20.810Z,90.45
2018-10-06T02:21:49.101Z,91.68
2018-10-06T02:24:17.385Z,92.16
2018-10-06T02:26:45.721Z,91.85
2018-10-06T02:29:14.024Z,92.04
2018-10-06T02:31:42.286Z,92.17
2018-10-06T02:34:10.590Z,93.35
2018-10-06T02:36:41.787Z,92.36
2018-10-06T02:39:10.091Z,92.05
2018-10-06T02:41:38.874Z,92.29
2018-10-06T02:44:07.210Z,91.50
2018-10-06T02:46:35.505Z,92.10
2018-10-06T02:49:03.830Z,92.46
2018-10-06T02:51:32.125Z,92.35
2018-10-06T02:54:00.421Z,92.58
2018-10-06T02:56:28.778Z,92.28
2018-10-06T02:58:57.038Z,92.12
2018-10-06T03:01:25.333Z,92.65
2018-10-06T03:03:53.691Z,92.61
2018-10-06T03:06:22.059Z,92.86
2018-10-06T03:08:50.334Z,92.51
2018-10-06T03:11:18.598Z,92.38
2018-10-06T03:13:46.889Z,92.66
2018-10-06T03:16:15.191Z,91.82
2018-10-06T03:18:43.535Z,92.05
2018-10-06T03:21:11.874Z,91.96
2018-10-06T03:23:40.131Z,92.14
2018-10-06T03:26:08.402Z,92.22
2018-10-06T03:28:36.743Z,92.57
2018-10-06T03:31:05.018Z,92.97
2018-10-06T03:33:33.450Z,92.58
2018-10-06T03:36:01.751Z,92.58
2018-10-06T03:38:30.097Z,92.18
2018-10-06T03:40:58.417Z,91.85
2018-10-06T03:43:26.682Z,91.34
2018-10-06T03:45:54.989Z,91.73
2018-10-06T03:48:23.301Z,91.95
2018-10-06T03:50:51.682Z,92.59
2018-10-06T03:53:19.960Z,92.38
2018-10-06T03:58:22.635Z,92.57
2018-10-06T04:00:50.909Z,91.88
2018-10-06T04:03:19.171Z,92.06
2018-10-06T04:05:47.474Z,92.58
2018-10-06T04:08:15.722Z,92.30
2018-10-06T04:10:44.001Z,92.63
2018-10-06T04:13:12.253Z,92.40
2018-10-06T04:15:40.585Z,93.12
2018-10-06T04:18:08.887Z,93.61
2018-10-06T04:20:37.147Z,92.20
2018-10-06T04:23:05.439Z,92.97
2018-10-06T04:25:33.690Z,93.26
2018-10-06T04:28:01.997Z,93.39
2018-10-06T04:30:30.260Z,92.86
2018-10-06T04:32:59.200Z,92.12
2018-10-06T04:35:27.482Z,93.35
2018-10-06T04:37:55.769Z,92.57
2018-10-06T04:40:24.086Z,92.23
2018-10-06T04:42:52.644Z,92.40
2018-10-06T04:45:20.957Z,93.31
2018-10-06T04:47:49.290Z,92.48
2018-10-06T04:50:17.607Z,93.47
2018-10-06T04:52:45.888Z,92.55
2018-10-06T04:55:14.150Z,93.41
2018-10-06T04:57:42.436Z,91.99
2018-10-06T05:00:10.686Z,91.56
2018-10-06T05:02:38.995Z,92.23
2018-10-06T05:05:13.875Z,91.79
2018-10-06T05:07:42.194Z,91.24
2018-10-06T05:10:10.457Z,92.48
2018-10-06T05:12:38.747Z,92.42
2018-10-06T05:15:07.088Z,92.91
2018-10-06T05:17:35.354Z,92.55
2018-10-06T05:20:03.682Z,92.82
2018-10-06T05:22:31.966Z,92.01
2018-10-06T05:25:00.251Z,92.11
2018-10-06T05:27:28.525Z,91.77
2018-10-06T05:29:56.860Z,91.76
2018-10-06T05:32:25.157Z,92.17
2018-10-06T05:34:53.442Z,92.89
2018-10-06T05:37:21.737Z,91.54
2018-10-06T05:39:50.001Z,92.26
2018-10-06T05:42:18.308Z,91.55
2018-10-06T05:44:46.666Z,92.21
2018-10-06T05:47:14.919Z,91.27
2018-10-06T05:49:43.194Z,91.37
2018-10-06T05:52:11.730Z,91.85
2018-10-06T05:54:39.983Z,92.21
2018-10-06T05:57:08.266Z,91.29
2018-10-06T05:59:36.566Z,92.13
2018-10-06T06:02:04.893Z,92.24
2018-10-06T06:04:33.197Z,92.50
2018-10-06T06:07:01.513Z,91.46
2018-10-06T06:09:29.807Z,91.36
2018-10-06T06:11:58.157Z,92.01
2018-10-06T06:14:26.440Z,91.87
2018-10-06T06:16:54.770Z,91.17
2018-10-06T06:19:23.030Z,91.44
2018-10-06T06:21:51.344Z,91.64
2018-10-06T06:24:19.687Z,91.24
2018-10-06T06:27:03.861Z,90.79
2018-10-06T06:29:32.249Z,91.86
2018-10-06T06:32:00.691Z,91.04
2018-10-06T06:34:29.201Z,91.28
2018-10-06T06:36:57.612Z,91.44
2018-10-06T06:39:26.073Z,91.36
2018-10-06T06:41:54.593Z,90.36
2018-10-06T06:44:28.438Z,91.21
2018-10-06T06:47:03.724Z,91.09
2018-10-06T06:49:32.790Z,90.25
2018-10-06T06:52:01.194Z,90.11
2018-10-06T06:54:29.556Z,90.09
2018-10-06T06:56:57.986Z,90.23
2018-10-06T06:59:27.936Z,89.86
2018-10-06T07:01:56.351Z,89.43
2018-10-06T07:04:24.884Z,89.82
2018-10-06T07:06:53.486Z,89.79
2018-10-06T07:09:21.900Z,89.82
2018-10-06T07:11:50.288Z,91.27
2018-10-06T07:14:20.727Z,91.59
2018-10-06T07:16:49.127Z,90.58
2018-10-06T07:19:17.549Z,91.09
2018-10-06T07:21:46.009Z,91.27
2018-10-06T07:24:14.728Z,90.87
2018-10-06T07:26:43.184Z,91.11
2018-10-06T07:29:11.742Z,91.85
2018-10-06T07:31:41.428Z,92.72
2018-10-06T07:34:09.873Z,92.38
2018-10-06T07:36:39.295Z,92.67
2018-10-06T07:39:07.981Z,93.22
2018-10-06T07:41:36.449Z,93.42
2018-10-06T07:44:04.853Z,93.63
2018-10-06T07:46:33.276Z,93.77
2018-10-06T07:49:01.720Z,93.63
2018-10-06T07:51:30.143Z,93.11
2018-10-06T07:53:58.545Z,91.89
2018-10-06T07:56:28.221Z,91.15
2018-10-06T07:58:56.680Z,90.09
2018-10-06T08:01:25.080Z,89.57
2018-10-06T08:03:53.455Z,89.42
2018-10-06T08:06:21.896Z,89.04
2018-10-06T08:08:50.336Z,88.65
2018-10-06T08:11:18.769Z,88.12
2018-10-06T08:13:47.369Z,87.56
2018-10-06T08:16:15.798Z,87.66
2018-10-06T08:18:44.179Z,87.12
2018-10-06T08:21:12.761Z,87.04
2018-10-06T08:23:41.144Z,86.58
2018-10-06T08:26:09.574Z,86.44
2018-10-06T08:28:38.061Z,86.06
2018-10-06T08:31:06.469Z,86.29
2018-10-06T08:33:34.978Z,85.99
2018-10-06T08:36:03.546Z,84.83
2018-10-06T08:38:32.018Z,84.53
2018-10-06T08:41:00.875Z,84.40
2018-10-06T08:43:29.265Z,84.00
2018-10-06T08:45:57.780Z,83.98
2018-10-06T08:48:26.154Z,83.35
2018-10-06T08:50:54.546Z,83.36
2018-10-06T08:53:23.051Z,82.69
2018-10-06T08:55:51.608Z,82.83
2018-10-06T08:58:19.965Z,81.92
2018-10-06T09:00:48.380Z,82.12
2018-10-06T09:03:16.746Z,81.91
2018-10-06T09:05:45.139Z,81.13
2018-10-06T09:08:13.508Z,81.71
2018-10-06T09:10:41.948Z,81.23
2018-10-06T09:13:10.297Z,81.41
2018-10-06T09:15:38.744Z,80.97
2018-10-06T09:18:07.132Z,81.84
2018-10-06T09:20:35.573Z,80.14
2018-10-06T09:23:20.445Z,79.00
2018-10-06T09:25:49.682Z,76.85
2018-10-06T09:28:18.148Z,78.56
2018-10-06T09:30:46.507Z,77.82
2018-10-06T09:33:15.066Z,77.92
2018-10-06T09:35:43.466Z,78.01
2018-10-06T09:38:12.071Z,77.85
2018-10-06T09:40:40.604Z,75.88
2018-10-06T09:43:09.261Z,76.51
2018-10-06T09:45:37.658Z,76.54
2018-10-06T09:48:06.171Z,76.32
2018-10-06T09:50:34.637Z,76.26
2018-10-06T09:53:03.244Z,76.41
2018-10-06T09:55:31.864Z,75.08
2018-10-06T09:58:20.474Z,75.50
2018-10-06T10:01:21.397Z,74.94
2018-10-06T10:06:51.455Z,73.20
2018-10-06T10:09:23.944Z,73.29
2018-10-06T10:12:00.928Z,72.59
2018-10-06T10:14:45.406Z,71.89
2018-10-06T10:17:25.176Z,72.96
2018-10-06T10:20:06.208Z,72.02
2018-10-06T10:22:41.689Z,72.94
2018-10-06T10:25:15.245Z,72.87
2018-10-06T10:27:47.983Z,72.56
2018-10-06T10:30:19.008Z,72.73
2018-10-06T10:32:54.827Z,72.08
2018-10-06T10:35:27.726Z,70.39
2018-10-06T10:37:56.236Z,69.46
2018-10-06T10:40:24.796Z,68.83
2018-10-06T10:42:53.212Z,68.36
2018-10-06T10:45:21.752Z,68.88
2018-10-06T10:47:50.296Z,67.27
2018-10-06T10:50:18.937Z,64.51
2018-10-06T10:52:47.503Z,64.50
2018-10-06T10:55:16.267Z,65.33
2018-10-06T10:57:44.867Z,65.39
2018-10-06T11:00:13.477Z,66.70
2018-10-06T11:02:47.750Z,65.02
2018-10-06T11:05:18.706Z,65.57
2018-10-06T11:07:47.104Z,65.87
2018-10-06T11:10:15.734Z,64.50
2018-10-06T11:12:44.314Z,65.28
2018-10-06T11:15:12.634Z,63.59
2018-10-06T11:17:42.567Z,63.65
2018-10-06T11:20:11.878Z,63.36
2018-10-06T11:22:42.923Z,64.11
2018-10-06T11:25:11.769Z,62.84
2018-10-06T11:27:41.691Z,63.28
2018-10-06T11:30:10.670Z,63.37
2018-10-06T11:32:42.546Z,62.94
2018-10-06T11:35:11.093Z,62.27
2018-10-06T11:37:47.778Z,63.33
2018-10-06T11:40:16.952Z,62.83
2018-10-06T11:42:45.364Z,61.38
2018-10-06T11:45:13.839Z,62.03
2018-10-06T11:47:43.156Z,61.39
2018-10-06T11:50:12.981Z,59.54
2018-10-06T11:52:44.387Z,60.68
2018-10-06T11:55:16.755Z,60.51
2018-10-06T11:57:48.766Z,60.66
2018-10-06T12:00:23.649Z,60.83
2018-10-06T12:03:01.382Z,61.11
2018-10-06T12:05:36.444Z,61.92
2018-10-06T12:08:22.496Z,62.67
2018-10-06T12:19:31.027Z,61.53
2018-10-06T12:22:16.982Z,61.71
2018-10-06T12:24:50.135Z,59.73
2018-10-06T12:27:27.165Z,60.59
2018-10-06T12:30:07.154Z,60.78
2018-10-06T12:32:44.074Z,61.23
2018-10-06T12:35:22.008Z,60.02
2018-10-06T12:37:58.841Z,60.57
2018-10-06T12:40:41.904Z,60.39
2018-10-06T12:43:20.419Z,59.88
2018-10-06T12:46:08.318Z,60.35
2018-10-06T12:48:44.492Z,59.77
2018-10-06T12:51:14.013Z,59.43
2018-10-06T12:53:43.762Z,57.58
2018-10-06T12:56:19.210Z,57.35
2018-10-06T12:58:56.169Z,58.00
2018-10-06T13:01:33.839Z,58.85
2018-10-06T13:04:14.304Z,59.61
2018-10-06T13:06:59.103Z,58.36
2018-10-06T13:09:27.771Z,60.12
2018-10-06T13:11:56.327Z,59.60
2018-10-06T13:14:24.639Z,59.02
2018-10-06T13:16:52.991Z,59.76
2018-10-06T13:19:21.296Z,59.80
2018-10-06T13:21:49.754Z,59.95
2018-10-06T13:24:18.071Z,62.00
2018-10-06T13:26:46.420Z,60.82
2018-10-06T13:29:14.958Z,61.20
2018-10-06T13:31:43.355Z,60.61
2018-10-06T13:34:11.686Z,61.53
2018-10-06T13:36:40.022Z,61.79
2018-10-06T13:39:09.245Z,61.97
2018-10-06T13:41:37.747Z,62.34
2018-10-06T13:44:06.191Z,62.90
2018-10-06T13:46:34.761Z,62.56
2018-10-06T13:49:03.575Z,61.65
2018-10-06T13:51:31.907Z,63.00
2018-10-06T13:54:00.651Z,62.72
2018-10-06T13:56:29.004Z,61.30
2018-10-06T13:58:57.298Z,61.09
2018-10-06T14:01:26.024Z,60.63
2018-10-06T14:03:54.360Z,59.20
2018-10-06T14:06:22.713Z,60.95
2018-10-06T14:08:51.190Z,60.94
2018-10-06T14:11:19.710Z,60.06
2018-10-06T14:13:48.235Z,61.41
2018-10-06T14:16:16.534Z,60.33
2018-10-06T14:18:44.893Z,61.62
2018-10-06T14:21:13.183Z,60.51
2018-10-06T14:23:41.486Z,54.75
2018-10-06T14:26:10.021Z,57.09
2018-10-06T14:28:38.975Z,56.49
2018-10-06T14:31:07.335Z,57.68
2018-10-06T14:33:35.810Z,57.61
2018-10-06T14:39:32.026Z,57.10
2018-10-06T14:42:00.575Z,56.61
2018-10-06T14:44:28.977Z,56.13
2018-10-06T14:46:57.621Z,55.68
2018-10-06T14:49:26.038Z,57.50
2018-10-06T14:51:54.500Z,56.70
2018-10-06T14:54:22.876Z,54.61
2018-10-06T14:56:51.250Z,55.20
2018-10-06T14:59:19.667Z,54.28
2018-10-06T15:01:48.090Z,54.93
2018-10-06T15:04:16.525Z,54.59
2018-10-06T15:06:44.988Z,55.56
2018-10-06T15:09:14.378Z,56.48
2018-10-06T15:11:43.201Z,56.71
2018-10-06T15:14:11.576Z,55.69
2018-10-06T15:16:39.903Z,56.01
2018-10-06T15:19:08.267Z,56.32
2018-10-06T15:21:36.833Z,56.92
2018-10-06T15:24:05.221Z,57.52
2018-10-06T15:26:33.661Z,57.46
2018-10-06T15:29:02.022Z,56.50
2018-10-06T15:31:30.473Z,56.76
2018-10-06T15:33:58.991Z,56.66
2018-10-06T15:36:27.404Z,58.52
2018-10-06T15:38:55.787Z,57.63
2018-10-06T15:41:24.121Z,57.71
2018-10-06T15:43:52.530Z,58.77
2018-10-06T15:46:20.861Z,58.94
2018-10-06T15:48:49.432Z,58.64
2018-10-06T15:51:18.079Z,59.05
2018-10-06T15:53:46.450Z,58.85
2018-10-06T15:56:14.866Z,58.88
2018-10-06T15:58:43.502Z,58.79
2018-10-06T16:01:11.888Z,59.47
2018-10-06T16:03:40.341Z,60.23
2018-10-06T16:06:08.742Z,60.54
2018-10-06T16:08:37.140Z,60.50
2018-10-06T16:11:05.710Z,59.92
2018-10-06T16:13:34.060Z,60.48
2018-10-06T16:16:02.418Z,60.13
2018-10-06T16:18:30.799Z,60.26
2018-10-06T16:20:59.145Z,60.67
2018-10-06T16:23:27.716Z,60.63
2018-10-06T16:25:56.240Z,61.37
2018-10-06T16:28:24.612Z,61.08
2018-10-06T16:30:52.945Z,61.28
2018-10-06T16:33:21.339Z,61.82
2018-10-06T16:35:49.734Z,61.37
2018-10-06T16:38:18.209Z,61.36
2018-10-06T16:40:46.589Z,62.23
2018-10-06T16:43:15.184Z,63.53
2018-10-06T16:45:43.564Z,64.72
2018-10-06T16:48:11.997Z,64.71
2018-10-06T16:53:43.148Z,66.71
2018-10-06T17:01:10.594Z,69.60
2018-10-06T17:03:39.076Z,70.15
2018-10-06T17:06:07.518Z,71.09
2018-10-06T17:08:35.922Z,70.87
2018-10-06T17:11:04.828Z,71.10
2018-10-06T17:13:33.197Z,71.08
2018-10-06T17:16:01.642Z,71.75
2018-10-06T17:18:30.122Z,71.33
2018-10-06T17:20:58.469Z,72.58
2018-10-06T17:23:27.116Z,73.36
2018-10-06T17:25:55.499Z,73.71
2018-10-06T17:28:24.109Z,73.37
2018-10-06T17:30:52.624Z,73.83
2018-10-06T17:33:21.056Z,73.44
2018-10-06T17:35:49.643Z,73.32
2018-10-06T17:38:18.064Z,73.41
2018-10-06T17:40:46.435Z,73.92
2018-10-06T17:43:14.888Z,73.43
2018-10-06T17:45:43.604Z,72.69
2018-10-06T17:48:12.080Z,73.62
2018-10-06T17:50:40.779Z,71.38
2018-10-06T17:53:09.020Z,72.35
2018-10-06T17:55:37.455Z,71.89
2018-10-06T17:58:06.274Z,72.51
2018-10-06T18:00:34.671Z,72.73
2018-10-06T18:03:03.043Z,72.31
2018-10-06T18:05:31.428Z,72.77
2018-10-06T18:07:59.782Z,72.41
2018-10-06T18:10:28.179Z,72.80
2018-10-06T18:12:57.278Z,72.76
2018-10-06T18:15:27.084Z,72.89
2018-10-06T18:17:55.560Z,73.46
2018-10-06T18:20:24.833Z,73.52
2018-10-06T18:22:53.162Z,74.71
2018-10-06T18:25:21.629Z,75.29
2018-10-06T18:27:50.269Z,75.82
2018-10-06T18:30:18.855Z,75.69
2018-10-06T18:32:47.877Z,75.04
2018-10-06T18:35:16.318Z,75.44
2018-10-06T18:37:45.344Z,75.11
2018-10-06T18:40:13.839Z,74.41
2018-10-06T18:42:42.260Z,74.58
2018-10-06T18:45:10.645Z,75.36
2018-10-06T18:47:39.285Z,76.15
2018-10-06T18:50:08.387Z,75.79
2018-10-06T18:52:36.711Z,76.22
2018-10-06T18:55:05.055Z,76.28
2018-10-06T18:57:33.624Z,76.42
2018-10-06T19:00:02.450Z,76.62
2018-10-06T19:02:30.985Z,76.18
2018-10-06T19:04:59.306Z,76.67
2018-10-06T19:07:27.766Z,76.57
2018-10-06T19:09:56.136Z,77.57
2018-10-06T19:12:24.766Z,77.58
2018-10-06T19:14:53.146Z,78.48
2018-10-06T19:17:21.593Z,78.14
2018-10-06T19:19:50.002Z,78.17
2018-10-06T19:22:18.360Z,78.15
2018-10-06T19:24:47.066Z,78.26
2018-10-06T19:27:15.585Z,78.02
2018-10-06T19:29:44.184Z,78.24
2018-10-06T19:32:12.630Z,79.39
2018-10-06T19:34:41.000Z,79.13
2018-10-06T19:37:10.179Z,79.46
2018-10-06T19:39:38.606Z,80.00
2018-10-06T19:42:07.326Z,79.92
2018-10-06T19:44:35.650Z,79.81
2018-10-06T19:47:04.091Z,80.24
2018-10-06T19:49:32.565Z,80.48
2018-10-06T19:52:01.066Z,80.81
2018-10-06T19:54:30.670Z,81.25
2018-10-06T19:56:59.108Z,81.14
2018-10-06T19:59:27.687Z,80.69
2018-10-06T20:01:56.104Z,80.73
2018-10-06T20:04:24.530Z,80.51
2018-10-06T20:06:52.919Z,79.55
2018-10-06T20:09:21.516Z,80.02
2018-10-06T20:11:50.325Z,79.63
2018-10-06T20:14:19.309Z,78.71
2018-10-06T20:16:47.767Z,78.98
2018-10-06T20:19:16.227Z,79.52
2018-10-06T20:21:44.551Z,79.48
2018-10-06T20:24:13.087Z,79.37
2018-10-06T20:26:41.646Z,79.27
2018-10-06T20:29:10.109Z,79.52
2018-10-06T20:31:38.595Z,79.51
2018-10-06T20:34:07.014Z,80.16
2018-10-06T20:36:35.373Z,79.48
2018-10-06T20:39:04.915Z,80.08
2018-10-06T20:41:33.296Z,79.60
2018-10-06T20:44:01.889Z,80.16
2018-10-06T20:46:30.295Z,80.13
2018-10-06T20:48:58.644Z,80.36
2018-10-06T20:51:26.980Z,80.04
2018-10-06T20:53:55.370Z,80.34
2018-10-06T20:56:23.719Z,80.02
2018-10-06T20:58:52.186Z,79.63
2018-10-06T21:01:20.547Z,80.22
2018-10-06T21:03:48.951Z,79.65
2018-10-06T21:06:17.319Z,80.30
2018-10-06T21:08:45.713Z,80.81
2018-10-06T21:11:14.062Z,81.40
2018-10-06T21:13:42.481Z,80.91
2018-10-06T21:16:10.850Z,80.35
2018-10-06T21:18:39.200Z,80.99
2018-10-06T21:21:07.573Z,81.17
2018-10-06T21:23:36.145Z,81.57
2018-10-06T21:26:04.545Z,80.14
2018-10-06T21:28:32.957Z,78.78
2018-10-06T21:31:01.298Z,78.34
2018-10-06T21:33:29.651Z,78.22
2018-10-06T21:35:58.182Z,78.79
2018-10-06T21:38:26.614Z,78.79
2018-10-06T21:40:54.936Z,79.18
2018-10-06T21:43:23.263Z,78.26
2018-10-06T21:45:51.578Z,77.43
2018-10-06T21:48:20.011Z,76.41
2018-10-06T21:50:48.594Z,74.97
2018-10-06T21:53:16.891Z,76.03
2018-10-06T21:55:45.207Z,76.46
2018-10-06T21:58:13.708Z,76.86
2018-10-06T22:00:42.059Z,75.60
2018-10-06T22:03:10.385Z,74.65
2018-10-06T22:05:38.707Z,75.00
2018-10-06T22:08:07.395Z,74.29
2018-10-06T22:10:35.736Z,74.53
2018-10-06T22:13:04.080Z,73.70
2018-10-06T22:15:32.412Z,74.47
2018-10-06T22:18:00.734Z,75.37
2018-10-06T22:20:29.052Z,76.40
2018-10-06T22:22:57.406Z,76.95
2018-10-06T22:25:25.748Z,77.03
2018-10-06T22:27:54.108Z,78.75
2018-10-06T22:30:22.464Z,79.51
2018-10-06T22:32:50.803Z,79.54
2018-10-06T22:35:19.162Z,80.59
2018-10-06T22:37:47.480Z,80.34
2018-10-06T22:40:15.866Z,80.68
2018-10-06T22:42:44.211Z,81.58
2018-10-06T22:45:12.539Z,82.01
2018-10-06T22:47:41.003Z,82.72
2018-10-06T22:50:09.359Z,82.72
2018-10-06T22:52:37.671Z,83.69
2018-10-06T22:55:06.215Z,83.62
2018-10-06T22:57:34.543Z,84.22
2018-10-06T23:00:02.899Z,84.99
2018-10-06T23:02:31.276Z,85.07
2018-10-06T23:04:59.809Z,85.27
2018-10-06T23:07:28.212Z,85.64
2018-10-06T23:09:56.560Z,85.91
2018-10-06T23:12:24.891Z,86.34
2018-10-06T23:14:53.287Z,86.42
2018-10-06T23:17:21.611Z,85.74
2018-10-06T23:19:49.968Z,86.76
2018-10-06T23:22:18.297Z,86.74
2018-10-06T23:24:46.698Z,86.71
2018-10-06T23:27:15.058Z,87.19
2018-10-06T23:29:43.384Z,87.11
2018-10-06T23:32:11.796Z,87.29
2018-10-06T23:34:40.208Z,88.02
2018-10-06T23:37:08.527Z,87.81
2018-10-06T23:39:36.855Z,87.69
2018-10-06T23:42:05.194Z,88.05
2018-10-06T23:44:33.542Z,87.95
2018-10-06T23:47:02.100Z,87.82
2018-10-06T23:49:30.646Z,87.83
2018-10-06T23:51:59.076Z,88.21
2018-10-06T23:54:27.445Z,88.13
2018-10-06T23:56:55.842Z,88.46
2018-10-06T23:59:24.376Z,88.54
